Terminal Aerodrome Forecast
Issued by NWS

Home | Current Version | Previous Version | Text Only | Print | Product List | Glossary On
Versions: 1 2 3 4 5 6 7 8 9 10 11 12 13 14 15 16 17 18 19 20 21 22 23 24 25
308
FTUS41 KBUF 211504 AAA
TAFIAG
TAF AMD
KIAG 211504Z 2115/2212 19007KT 3SM BR SCT020
     FM211800 21005KT P6SM OVC012
     FM220400 06004KT 5SM BR OVC012=

USA.gov is the U.S. government's official web portal to all federal, state and local government web resources and services.